Time;durP1;ratioP1;P1;durP2;ratioP2;P2;SDS_P1;SDS_P2;PMS_P1;PMS_P2;Temp;Humidity;BMP_temperature;BMP_pressure;BME280_temperature;BME280_humidity;BME280_pressure;Samples;Min_cycle;Max_cycle;Signal;HPM_P1;HPM_P2
2023/12/28 00:01:08;;;;;;;3.05;1.45;;;;;;;;;;2063543;28;20066;-75
2023/12/28 00:02:27;;;;;;;6.43;1.45;;;;;;;;;;2062677;28;20026;-76
2023/12/28 00:03:46;;;;;;;3.65;1.17;;;;;;;;;;2055889;28;20026;-75
2023/12/28 00:05:04;;;;;;;3.80;1.33;;;;;;;;;;2061538;28;20038;-75
2023/12/28 00:06:23;;;;;;;3.28;1.50;;;;;;;;;;2063209;28;20022;-75
2023/12/28 00:07:42;;;;;;;6.40;1.48;;;;;;;;;;2066018;28;20023;-75
2023/12/28 00:09:01;;;;;;;4.78;1.65;;;;;;;;;;2065282;28;20464;-75
2023/12/28 00:10:20;;;;;;;5.40;1.48;;;;;;;;;;2064722;28;20124;-74
2023/12/28 00:11:39;;;;;;;3.30;1.35;;;;;;;;;;2062932;28;20030;-75
2023/12/28 00:12:58;;;;;;;5.13;1.50;;;;;;;;;;2063803;28;20093;-76
2023/12/28 00:14:17;;;;;;;4.82;1.52;;;;;;;;;;2061201;28;20026;-76
2023/12/28 00:15:35;;;;;;;4.78;1.35;;;;;;;;;;2066284;28;20047;-75
2023/12/28 00:16:54;;;;;;;6.75;1.35;;;;;;;;;;2064479;28;20030;-75
2023/12/28 00:18:13;;;;;;;7.80;1.52;;;;;;;;;;2062704;28;20034;-74
2023/12/28 00:19:32;;;;;;;4.82;1.75;;;;;;;;;;2064109;28;20050;-74
2023/12/28 00:20:51;;;;;;;3.05;1.05;;;;;;;;;;2063646;28;20527;-75
2023/12/28 00:22:10;;;;;;;3.42;1.67;;;;;;;;;;2070011;28;20041;-75
2023/12/28 00:23:29;;;;;;;4.50;1.50;;;;;;;;;;2068490;28;20089;-75
2023/12/28 00:24:48;;;;;;;6.95;1.98;;;;;;;;;;2064571;28;20492;-75
2023/12/28 00:26:07;;;;;;;6.40;1.58;;;;;;;;;;2060574;28;20435;-75
2023/12/28 00:27:26;;;;;;;2.13;1.30;;;;;;;;;;2060309;28;20030;-75
2023/12/28 00:28:45;;;;;;;3.78;1.48;;;;;;;;;;2064092;28;20047;-74
2023/12/28 00:30:05;;;;;;;3.42;1.58;;;;;;;;;;2059255;28;20046;-76
2023/12/28 00:31:24;;;;;;;7.68;2.03;;;;;;;;;;2064743;28;20043;-75
2023/12/28 00:32:44;;;;;;;4.05;1.92;;;;;;;;;;2066052;28;20034;-75
2023/12/28 00:34:03;;;;;;;2.60;1.23;;;;;;;;;;2063915;28;20503;-75
2023/12/28 00:35:21;;;;;;;7.57;2.10;;;;;;;;;;2060559;28;20524;-74
2023/12/28 00:36:41;;;;;;;2.85;1.63;;;;;;;;;;2060912;28;20023;-74
2023/12/28 00:37:59;;;;;;;6.47;1.90;;;;;;;;;;2064173;28;20026;-75
2023/12/28 00:39:18;;;;;;;8.90;2.22;;;;;;;;;;2065989;28;20034;-75
2023/12/28 00:40:37;;;;;;;5.47;2.03;;;;;;;;;;2065018;28;20035;-75
2023/12/28 00:41:56;;;;;;;6.30;1.52;;;;;;;;;;2063844;28;20023;-75
2023/12/28 00:43:15;;;;;;;4.38;1.40;;;;;;;;;;2062247;28;20026;-77
2023/12/28 00:44:34;;;;;;;4.82;1.85;;;;;;;;;;2063954;28;20038;-75
2023/12/28 00:45:53;;;;;;;6.38;1.60;;;;;;;;;;2064611;28;20027;-75
2023/12/28 00:47:12;;;;;;;3.47;1.75;;;;;;;;;;2064658;28;20018;-75
2023/12/28 00:48:31;;;;;;;4.60;1.85;;;;;;;;;;2060972;28;20023;-75
2023/12/28 00:49:50;;;;;;;7.97;2.33;;;;;;;;;;2063753;28;20101;-75
2023/12/28 00:51:10;;;;;;;4.25;1.27;;;;;;;;;;2063707;28;20050;-75
2023/12/28 00:52:29;;;;;;;6.57;1.63;;;;;;;;;;2062109;28;20019;-75
2023/12/28 00:53:47;;;;;;;3.50;1.70;;;;;;;;;;2063667;28;20030;-75
2023/12/28 00:55:07;;;;;;;4.18;1.58;;;;;;;;;;2064069;28;20038;-75
2023/12/28 00:56:26;;;;;;;2.33;1.70;;;;;;;;;;2061727;28;20030;-77
2023/12/28 00:57:45;;;;;;;6.10;1.50;;;;;;;;;;2060637;28;20034;-75
2023/12/28 00:59:04;;;;;;;3.17;1.70;;;;;;;;;;2063387;28;20058;-75
2023/12/28 01:00:23;;;;;;;8.90;2.15;;;;;;;;;;2063978;28;21094;-75
2023/12/28 01:01:41;;;;;;;3.88;1.73;;;;;;;;;;2064939;28;20503;-75
2023/12/28 01:03:00;;;;;;;4.60;1.70;;;;;;;;;;2065882;28;20496;-74
2023/12/28 01:04:19;;;;;;;6.00;2.33;;;;;;;;;;2064251;28;20038;-76
2023/12/28 01:05:38;;;;;;;4.00;1.60;;;;;;;;;;2057430;28;20034;-75
2023/12/28 01:06:58;;;;;;;4.53;2.17;;;;;;;;;;2061644;28;20023;-75
2023/12/28 01:08:17;;;;;;;5.32;2.00;;;;;;;;;;2063492;28;20030;-74
2023/12/28 01:09:37;;;;;;;7.57;2.00;;;;;;;;;;2063924;28;20030;-76
2023/12/28 01:10:56;;;;;;;3.85;1.63;;;;;;;;;;2065766;28;20034;-75
2023/12/28 01:12:16;;;;;;;6.75;1.92;;;;;;;;;;2060805;28;20500;-75
2023/12/28 01:13:36;;;;;;;4.70;1.70;;;;;;;;;;2063198;28;20038;-75
2023/12/28 01:14:55;;;;;;;2.45;1.52;;;;;;;;;;2062267;28;20026;-75
2023/12/28 01:16:14;;;;;;;8.30;1.42;;;;;;;;;;2063589;28;20023;-74
2023/12/28 01:17:33;;;;;;;4.63;2.03;;;;;;;;;;2065177;28;20027;-75
2023/12/28 01:18:52;;;;;;;3.97;1.88;;;;;;;;;;2065406;28;20030;-74
2023/12/28 01:20:10;;;;;;;6.30;2.00;;;;;;;;;;2062853;28;20039;-75
2023/12/28 01:21:29;;;;;;;5.05;1.60;;;;;;;;;;2065690;28;20031;-74
2023/12/28 01:22:50;;;;;;;2.58;1.35;;;;;;;;;;2065042;28;20042;-74
2023/12/28 01:24:08;;;;;;;3.28;1.33;;;;;;;;;;2063564;28;20023;-75
2023/12/28 01:25:27;;;;;;;6.93;1.90;;;;;;;;;;2063982;28;20030;-75
2023/12/28 01:26:46;;;;;;;8.07;1.52;;;;;;;;;;2059992;28;20018;-75
2023/12/28 01:28:06;;;;;;;4.85;1.30;;;;;;;;;;2064227;28;20030;-76
2023/12/28 01:29:24;;;;;;;5.88;1.80;;;;;;;;;;2062607;28;20046;-75
2023/12/28 01:30:43;;;;;;;4.57;2.15;;;;;;;;;;2066333;28;20213;-75
2023/12/28 01:32:03;;;;;;;4.75;1.83;;;;;;;;;;2063280;28;20030;-75
2023/12/28 01:33:22;;;;;;;6.32;2.50;;;;;;;;;;2063492;28;20034;-75
2023/12/28 01:34:42;;;;;;;6.10;1.77;;;;;;;;;;2064306;28;20509;-75
2023/12/28 01:36:01;;;;;;;6.03;2.10;;;;;;;;;;2064098;28;20027;-75
2023/12/28 01:37:21;;;;;;;6.70;1.50;;;;;;;;;;2064697;28;20034;-75
2023/12/28 01:38:40;;;;;;;3.85;1.90;;;;;;;;;;2064783;28;20396;-75
2023/12/28 01:40:00;;;;;;;3.25;1.70;;;;;;;;;;2064294;28;20523;-74
2023/12/28 01:41:19;;;;;;;3.70;1.83;;;;;;;;;;2062682;28;21075;-75
2023/12/28 01:42:39;;;;;;;5.00;1.85;;;;;;;;;;2063134;28;20031;-76
2023/12/28 01:43:57;;;;;;;5.78;2.00;;;;;;;;;;2057121;28;20018;-74
2023/12/28 01:45:17;;;;;;;2.97;2.30;;;;;;;;;;2061297;28;20015;-74
2023/12/28 01:46:36;;;;;;;6.47;2.17;;;;;;;;;;2064396;28;20031;-74
2023/12/28 01:47:56;;;;;;;2.97;1.88;;;;;;;;;;2063014;28;20031;-75
2023/12/28 01:49:15;;;;;;;3.17;2.15;;;;;;;;;;2070431;28;20026;-75
2023/12/28 01:50:34;;;;;;;12.48;2.45;;;;;;;;;;2064365;28;20559;-74
2023/12/28 01:51:53;;;;;;;5.55;1.83;;;;;;;;;;2060632;28;20034;-75
2023/12/28 01:53:12;;;;;;;7.32;2.53;;;;;;;;;;2065298;28;20504;-74
2023/12/28 01:54:31;;;;;;;4.32;1.90;;;;;;;;;;2061316;28;20042;-75
2023/12/28 01:55:51;;;;;;;3.88;1.80;;;;;;;;;;2058461;28;20026;-75
2023/12/28 01:57:10;;;;;;;6.38;1.88;;;;;;;;;;2062455;28;20023;-75
2023/12/28 01:58:32;;;;;;;4.22;1.50;;;;;;;;;;2060212;28;20026;-76
2023/12/28 01:59:52;;;;;;;3.20;1.27;;;;;;;;;;2064513;28;20057;-75
2023/12/28 02:01:11;;;;;;;4.50;1.98;;;;;;;;;;2063885;28;20084;-75
2023/12/28 02:02:31;;;;;;;5.60;2.90;;;;;;;;;;2061148;28;20026;-76
2023/12/28 02:03:50;;;;;;;5.78;2.22;;;;;;;;;;2060332;28;20483;-75
2023/12/28 02:05:12;;;;;;;5.70;2.08;;;;;;;;;;2059751;28;20552;-75
2023/12/28 02:06:30;;;;;;;10.77;3.08;;;;;;;;;;2064438;28;20456;-75
2023/12/28 02:07:49;;;;;;;5.78;2.38;;;;;;;;;;2064361;28;20031;-77
2023/12/28 02:09:08;;;;;;;5.38;2.47;;;;;;;;;;2065440;28;20026;-75
2023/12/28 02:10:27;;;;;;;3.92;2.08;;;;;;;;;;2075246;28;20022;-75
2023/12/28 02:11:46;;;;;;;7.45;2.22;;;;;;;;;;2070464;28;20026;-77
2023/12/28 02:13:05;;;;;;;5.90;1.85;;;;;;;;;;2072837;28;20827;-77
2023/12/28 02:14:25;;;;;;;5.45;1.80;;;;;;;;;;2073628;28;20014;-77
2023/12/28 02:15:46;;;;;;;4.82;1.75;;;;;;;;;;2068126;28;20088;-74
2023/12/28 02:17:12;;;;;;;5.55;2.42;;;;;;;;;;2064295;28;20475;-75
2023/12/28 02:18:35;;;;;;;4.57;2.15;;;;;;;;;;2064633;28;20026;-75
2023/12/28 02:19:54;;;;;;;;;;;;;;;;;;2070836;28;20106;-75
2023/12/28 02:21:13;;;;;;;4.50;2.03;;;;;;;;;;2071799;28;19966;-74
2023/12/28 02:22:33;;;;;;;5.45;2.03;;;;;;;;;;2072798;28;20091;-75
2023/12/28 02:23:53;;;;;;;9.13;2.53;;;;;;;;;;2073287;28;20026;-75
2023/12/28 02:25:12;;;;;;;7.68;2.40;;;;;;;;;;2073614;28;20018;-75
2023/12/28 02:26:31;;;;;;;4.55;2.10;;;;;;;;;;2068861;28;20038;-76
2023/12/28 02:27:50;;;;;;;4.43;2.00;;;;;;;;;;2067870;28;20039;-75
2023/12/28 02:29:09;;;;;;;4.65;2.35;;;;;;;;;;2067746;28;20054;-77
2023/12/28 02:30:29;;;;;;;6.63;2.38;;;;;;;;;;2066767;28;20026;-76
2023/12/28 02:31:53;;;;;;;6.45;1.88;;;;;;;;;;2064936;28;20403;-75
2023/12/28 02:33:15;;;;;;;3.85;1.90;;;;;;;;;;2062166;28;20050;-75
2023/12/28 02:34:37;;;;;;;6.00;1.73;;;;;;;;;;2066863;28;20473;-75
2023/12/28 02:36:08;;;;;;;3.67;2.30;;;;;;;;;;2065386;28;20035;-75
2023/12/28 02:37:28;;;;;;;9.98;1.80;;;;;;;;;;2064422;28;20042;-75
2023/12/28 02:38:48;;;;;;;4.05;1.83;;;;;;;;;;2061320;28;20038;-75
2023/12/28 02:40:08;;;;;;;4.07;1.50;;;;;;;;;;2063244;28;20034;-75
2023/12/28 02:41:27;;;;;;;3.78;1.83;;;;;;;;;;2061659;28;20026;-74
2023/12/28 02:42:46;;;;;;;2.38;1.80;;;;;;;;;;2060363;28;20098;-77
2023/12/28 02:44:06;;;;;;;3.97;1.75;;;;;;;;;;2062822;28;20030;-75
2023/12/28 02:45:25;;;;;;;5.95;2.13;;;;;;;;;;2064168;28;20026;-75
2023/12/28 02:46:44;;;;;;;5.18;1.70;;;;;;;;;;2064595;28;20112;-75
2023/12/28 02:48:04;;;;;;;5.95;2.20;;;;;;;;;;2063425;28;20030;-76
2023/12/28 02:49:23;;;;;;;4.95;1.70;;;;;;;;;;2062470;28;20053;-75
2023/12/28 02:50:42;;;;;;;5.03;1.67;;;;;;;;;;2064707;28;20046;-75
2023/12/28 02:52:01;;;;;;;6.35;2.20;;;;;;;;;;2062110;28;20035;-76
2023/12/28 02:53:20;;;;;;;4.68;2.00;;;;;;;;;;2064076;28;20030;-75
2023/12/28 02:54:39;;;;;;;5.22;2.00;;;;;;;;;;2060746;28;20042;-75
2023/12/28 02:55:59;;;;;;;4.40;1.98;;;;;;;;;;2064146;28;20018;-75
2023/12/28 02:57:18;;;;;;;5.28;1.92;;;;;;;;;;2062022;28;20030;-75
2023/12/28 02:58:37;;;;;;;3.10;1.90;;;;;;;;;;2064460;28;20027;-75
2023/12/28 02:59:56;;;;;;;4.72;2.05;;;;;;;;;;2061807;28;20031;-77
2023/12/28 03:01:16;;;;;;;1.55;1.45;;;;;;;;;;2059792;28;20023;-75
2023/12/28 03:02:36;;;;;;;3.10;1.67;;;;;;;;;;2063116;28;20022;-75
2023/12/28 03:03:55;;;;;;;4.03;2.22;;;;;;;;;;2059640;28;20035;-75
2023/12/28 03:05:14;;;;;;;2.30;1.70;;;;;;;;;;2059659;28;20046;-76
2023/12/28 03:06:35;;;;;;;3.95;2.08;;;;;;;;;;2059670;28;20483;-76
2023/12/28 03:07:55;;;;;;;4.80;1.85;;;;;;;;;;2058901;28;20034;-76
2023/12/28 03:09:14;;;;;;;7.18;2.10;;;;;;;;;;2063996;28;20030;-74
2023/12/28 03:10:33;;;;;;;12.07;2.47;;;;;;;;;;2064886;28;20034;-75
2023/12/28 03:11:52;;;;;;;6.32;1.90;;;;;;;;;;2065373;28;20026;-75
2023/12/28 03:13:11;;;;;;;6.63;2.03;;;;;;;;;;2060939;28;20165;-76
2023/12/28 03:14:29;;;;;;;3.58;1.80;;;;;;;;;;2063132;28;20026;-76
2023/12/28 03:15:48;;;;;;;2.75;1.52;;;;;;;;;;2062629;28;20018;-75
2023/12/28 03:17:07;;;;;;;4.38;2.25;;;;;;;;;;2063632;28;20491;-76
2023/12/28 03:18:26;;;;;;;6.72;2.08;;;;;;;;;;2063485;28;20031;-75
2023/12/28 03:19:45;;;;;;;9.55;1.85;;;;;;;;;;2059201;28;20031;-75
2023/12/28 03:21:05;;;;;;;4.20;1.95;;;;;;;;;;2062295;28;20042;-75
2023/12/28 03:22:24;;;;;;;4.70;1.75;;;;;;;;;;2065045;28;20464;-74
2023/12/28 03:23:43;;;;;;;5.40;2.33;;;;;;;;;;2063916;28;20121;-75
2023/12/28 03:25:03;;;;;;;2.42;1.92;;;;;;;;;;2063179;28;20030;-75
2023/12/28 03:26:22;;;;;;;4.63;2.15;;;;;;;;;;2064071;28;20034;-75
2023/12/28 03:27:40;;;;;;;5.88;2.03;;;;;;;;;;2064213;28;20031;-75
2023/12/28 03:28:59;;;;;;;6.30;2.22;;;;;;;;;;2070441;28;20077;-76
2023/12/28 03:30:18;;;;;;;3.53;1.90;;;;;;;;;;2076058;28;20022;-75
2023/12/28 03:31:40;;;;;;;3.65;1.80;;;;;;;;;;2070285;28;20030;-74
2023/12/28 03:32:59;;;;;;;5.72;1.80;;;;;;;;;;2078487;28;20029;-75
2023/12/28 03:34:18;;;;;;;6.35;2.47;;;;;;;;;;2074437;28;20123;-75
2023/12/28 03:35:37;;;;;;;3.45;2.00;;;;;;;;;;2072532;28;20038;-75
2023/12/28 03:36:57;;;;;;;4.95;2.13;;;;;;;;;;2073889;28;20026;-75
2023/12/28 03:38:16;;;;;;;7.90;2.33;;;;;;;;;;2078591;28;20026;-76
2023/12/28 03:39:35;;;;;;;6.43;1.83;;;;;;;;;;2073119;28;20033;-75
2023/12/28 03:40:55;;;;;;;8.13;2.38;;;;;;;;;;2072320;28;20045;-75
2023/12/28 03:42:14;;;;;;;5.90;1.98;;;;;;;;;;2072377;28;20022;-75
2023/12/28 03:43:33;;;;;;;6.97;2.40;;;;;;;;;;2072036;28;20026;-75
2023/12/28 03:44:52;;;;;;;4.68;1.80;;;;;;;;;;2075166;28;20112;-75
2023/12/28 03:46:11;;;;;;;4.30;2.00;;;;;;;;;;2079187;28;20422;-75
2023/12/28 03:47:30;;;;;;;6.82;1.88;;;;;;;;;;2078883;28;20033;-75
2023/12/28 03:48:49;;;;;;;2.67;1.70;;;;;;;;;;2081351;28;20022;-75
2023/12/28 03:50:08;;;;;;;6.13;2.10;;;;;;;;;;2074217;28;20018;-75
2023/12/28 03:51:27;;;;;;;7.25;2.70;;;;;;;;;;2076232;28;20048;-74
2023/12/28 03:52:46;;;;;;;3.65;1.80;;;;;;;;;;2072259;28;20580;-76
2023/12/28 03:54:05;;;;;;;5.57;2.03;;;;;;;;;;2077682;28;20029;-74
2023/12/28 03:55:24;;;;;;;7.63;1.80;;;;;;;;;;2073509;28;20419;-76
2023/12/28 03:56:43;;;;;;;4.50;1.80;;;;;;;;;;2077188;28;20492;-75
2023/12/28 03:58:02;;;;;;;5.50;1.58;;;;;;;;;;2080264;28;20029;-75
2023/12/28 03:59:21;;;;;;;4.13;1.90;;;;;;;;;;2080330;28;20033;-76
2023/12/28 04:00:40;;;;;;;5.53;1.95;;;;;;;;;;2073361;28;20030;-75
2023/12/28 04:01:58;;;;;;;6.20;1.90;;;;;;;;;;2077953;28;20025;-75
2023/12/28 04:03:17;;;;;;;3.40;1.73;;;;;;;;;;2071469;28;20041;-75
2023/12/28 04:04:36;;;;;;;3.65;1.65;;;;;;;;;;2072366;28;20034;-76
2023/12/28 04:05:55;;;;;;;2.45;1.77;;;;;;;;;;2072513;28;20030;-75
2023/12/28 04:07:16;;;;;;;3.17;1.75;;;;;;;;;;2077315;28;20053;-75
2023/12/28 04:08:35;;;;;;;8.65;2.00;;;;;;;;;;2079799;28;20018;-75
2023/12/28 04:09:56;;;;;;;7.13;1.90;;;;;;;;;;2074582;28;20050;-76
2023/12/28 04:11:15;;;;;;;5.93;1.83;;;;;;;;;;2074274;28;20034;-75
2023/12/28 04:12:33;;;;;;;7.53;2.78;;;;;;;;;;2071814;28;20033;-75
2023/12/28 04:13:52;;;;;;;5.80;1.85;;;;;;;;;;2077527;28;20026;-76
2023/12/28 04:15:11;;;;;;;4.80;1.73;;;;;;;;;;2076189;28;20025;-75
2023/12/28 04:16:30;;;;;;;3.90;1.58;;;;;;;;;;2076424;28;20037;-75
2023/12/28 04:17:49;;;;;;;3.38;1.33;;;;;;;;;;2075197;28;20030;-75
2023/12/28 04:19:08;;;;;;;5.65;2.00;;;;;;;;;;2077340;28;20490;-75
2023/12/28 04:20:28;;;;;;;7.40;1.77;;;;;;;;;;2072826;28;20040;-75
2023/12/28 04:21:47;;;;;;;7.63;1.50;;;;;;;;;;2077685;28;20021;-75
2023/12/28 04:23:06;;;;;;;6.90;1.27;;;;;;;;;;2080403;28;20108;-75
2023/12/28 04:24:25;;;;;;;4.55;1.63;;;;;;;;;;2072651;28;20026;-75
2023/12/28 04:25:44;;;;;;;3.47;1.60;;;;;;;;;;2076816;28;20057;-76
2023/12/28 04:27:03;;;;;;;8.32;1.35;;;;;;;;;;2074733;28;20510;-75
2023/12/28 04:28:22;;;;;;;6.45;1.45;;;;;;;;;;2078063;28;20073;-75
2023/12/28 04:29:41;;;;;;;4.72;1.45;;;;;;;;;;2078366;28;20152;-77
2023/12/28 04:31:04;;;;;;;5.40;1.67;;;;;;;;;;2074731;28;20033;-75
2023/12/28 04:32:24;;;;;;;7.18;1.92;;;;;;;;;;2077386;28;20029;-75
2023/12/28 04:33:42;;;;;;;3.25;1.63;;;;;;;;;;2080917;28;20034;-77
2023/12/28 04:35:03;;;;;;;5.55;1.30;;;;;;;;;;2068442;28;20026;-75
2023/12/28 04:36:22;;;;;;;6.28;1.90;;;;;;;;;;2078613;28;20414;-74
2023/12/28 04:37:41;;;;;;;4.55;1.55;;;;;;;;;;2074375;28;20037;-77
2023/12/28 04:39:00;;;;;;;1.67;1.48;;;;;;;;;;2079599;28;20033;-75
2023/12/28 04:40:19;;;;;;;1.92;1.40;;;;;;;;;;2079359;28;20639;-75
2023/12/28 04:41:38;;;;;;;6.88;1.85;;;;;;;;;;2071532;28;20034;-75
2023/12/28 04:42:57;;;;;;;4.07;1.50;;;;;;;;;;2076598;28;20025;-75
2023/12/28 04:44:16;;;;;;;5.20;1.75;;;;;;;;;;2076061;28;20019;-75
2023/12/28 04:45:34;;;;;;;6.50;1.90;;;;;;;;;;2072589;28;20041;-76
2023/12/28 04:46:53;;;;;;;8.60;1.77;;;;;;;;;;2068310;28;20026;-75
2023/12/28 04:48:12;;;;;;;5.07;1.50;;;;;;;;;;2071192;28;20558;-75
2023/12/28 04:49:31;;;;;;;3.70;1.52;;;;;;;;;;2079031;28;20479;-75
2023/12/28 04:50:50;;;;;;;4.60;1.85;;;;;;;;;;2079897;28;20033;-75
2023/12/28 04:52:09;;;;;;;2.97;1.30;;;;;;;;;;2074932;28;20022;-74
2023/12/28 04:53:28;;;;;;;4.47;1.40;;;;;;;;;;2070602;28;20507;-74
2023/12/28 04:54:46;;;;;;;4.28;1.70;;;;;;;;;;2073007;28;20034;-75
2023/12/28 04:56:06;;;;;;;3.67;1.58;;;;;;;;;;2080906;28;20033;-75
2023/12/28 04:57:25;;;;;;;4.43;1.52;;;;;;;;;;2071200;28;20034;-76
2023/12/28 04:58:45;;;;;;;7.05;1.63;;;;;;;;;;2076245;28;20395;-75
2023/12/28 05:00:05;;;;;;;5.22;1.73;;;;;;;;;;2082385;28;20108;-75
2023/12/28 05:01:24;;;;;;;5.05;1.50;;;;;;;;;;2074841;28;20034;-75
2023/12/28 05:02:43;;;;;;;7.70;1.58;;;;;;;;;;2080343;28;20033;-75
2023/12/28 05:04:02;;;;;;;4.72;1.45;;;;;;;;;;2075689;28;20108;-75
2023/12/28 05:05:22;;;;;;;4.03;1.52;;;;;;;;;;2078632;28;20044;-76
2023/12/28 05:06:41;;;;;;;3.08;1.05;;;;;;;;;;2082138;28;20025;-75
2023/12/28 05:08:00;;;;;;;4.95;1.40;;;;;;;;;;2082515;28;20037;-75
2023/12/28 05:09:18;;;;;;;5.32;1.50;;;;;;;;;;2080062;28;20388;-76
2023/12/28 05:10:37;;;;;;;11.45;1.80;;;;;;;;;;2080952;28;20469;-75
2023/12/28 05:11:56;;;;;;;11.68;2.35;;;;;;;;;;2078577;28;20030;-75
2023/12/28 05:13:15;;;;;;;6.15;1.52;;;;;;;;;;2081859;28;20038;-75
2023/12/28 05:14:34;;;;;;;4.35;2.05;;;;;;;;;;2075707;28;20037;-75
2023/12/28 05:15:52;;;;;;;4.47;1.27;;;;;;;;;;2080419;28;20026;-75
2023/12/28 05:17:11;;;;;;;5.85;1.67;;;;;;;;;;2080419;28;20526;-75
2023/12/28 05:18:30;;;;;;;4.63;1.55;;;;;;;;;;2079544;28;20065;-75
2023/12/28 05:19:49;;;;;;;5.93;1.40;;;;;;;;;;2079854;28;20029;-75
2023/12/28 05:21:08;;;;;;;3.80;1.40;;;;;;;;;;2081746;28;20442;-75
2023/12/28 05:22:27;;;;;;;5.80;1.50;;;;;;;;;;2081476;28;20434;-75
2023/12/28 05:23:46;;;;;;;4.43;1.60;;;;;;;;;;2082703;28;20041;-75
2023/12/28 05:25:05;;;;;;;5.60;1.70;;;;;;;;;;2075466;28;20030;-75
2023/12/28 05:26:24;;;;;;;4.72;1.27;;;;;;;;;;2073275;28;20494;-74
2023/12/28 05:27:43;;;;;;;3.95;1.30;;;;;;;;;;2068921;28;20038;-75
2023/12/28 05:29:03;;;;;;;2.20;1.35;;;;;;;;;;2080293;28;20042;-75
2023/12/28 05:30:21;;;;;;;4.60;1.23;;;;;;;;;;2076586;28;20033;-75
2023/12/28 05:31:40;;;;;;;4.60;1.50;;;;;;;;;;2073606;28;20033;-75
2023/12/28 05:33:00;;;;;;;4.70;1.50;;;;;;;;;;2078163;28;20030;-75
2023/12/28 05:34:19;;;;;;;6.03;1.83;;;;;;;;;;2074965;28;20034;-75
2023/12/28 05:35:38;;;;;;;7.15;1.25;;;;;;;;;;2079444;28;20029;-76
2023/12/28 05:36:56;;;;;;;3.05;1.70;;;;;;;;;;2082238;28;20029;-74
2023/12/28 05:38:15;;;;;;;5.45;1.17;;;;;;;;;;2080363;28;20037;-74
2023/12/28 05:39:34;;;;;;;5.43;1.42;;;;;;;;;;2080879;28;20034;-75
2023/12/28 05:40:53;;;;;;;6.57;1.60;;;;;;;;;;2078661;28;20033;-75
2023/12/28 05:42:12;;;;;;;4.90;1.25;;;;;;;;;;2081762;28;20029;-75
2023/12/28 05:43:31;;;;;;;5.65;1.60;;;;;;;;;;2080447;28;20140;-75
2023/12/28 05:44:50;;;;;;;4.13;1.40;;;;;;;;;;2080362;28;20026;-75
2023/12/28 05:46:09;;;;;;;4.82;1.77;;;;;;;;;;2075374;28;20113;-75
2023/12/28 05:47:28;;;;;;;2.83;1.42;;;;;;;;;;2079461;28;20371;-75
2023/12/28 05:48:47;;;;;;;5.88;1.50;;;;;;;;;;2079961;28;20029;-75
2023/12/28 05:50:07;;;;;;;7.38;1.42;;;;;;;;;;2080208;28;20105;-75
2023/12/28 05:51:26;;;;;;;3.30;1.30;;;;;;;;;;2080010;28;20040;-75
2023/12/28 05:52:46;;;;;;;7.57;1.42;;;;;;;;;;2077834;28;20037;-75
2023/12/28 05:54:05;;;;;;;2.95;1.45;;;;;;;;;;2081573;28;20006;-76
2023/12/28 05:55:25;;;;;;;7.78;1.80;;;;;;;;;;2087010;28;20041;-77
2023/12/28 05:56:44;;;;;;;5.80;1.30;;;;;;;;;;2090254;28;20025;-77
2023/12/28 05:58:03;;;;;;;4.82;1.45;;;;;;;;;;2085406;28;20033;-76
2023/12/28 05:59:22;;;;;;;6.57;1.55;;;;;;;;;;2081834;28;20029;-75
2023/12/28 06:00:41;;;;;;;5.35;1.35;;;;;;;;;;2084142;28;20030;-74
2023/12/28 06:02:00;;;;;;;3.72;1.27;;;;;;;;;;2075152;28;20035;-76
2023/12/28 06:03:19;;;;;;;11.70;1.67;;;;;;;;;;2076349;28;20737;-75
2023/12/28 06:04:39;;;;;;;2.35;1.17;;;;;;;;;;2085248;28;20033;-75
2023/12/28 06:05:58;;;;;;;4.15;1.30;;;;;;;;;;2084212;28;20013;-75
2023/12/28 06:07:17;;;;;;;5.05;1.38;;;;;;;;;;2087073;28;20013;-77
2023/12/28 06:08:36;;;;;;;4.63;1.17;;;;;;;;;;2089069;28;20026;-76
2023/12/28 06:09:55;;;;;;;2.90;1.20;;;;;;;;;;2079776;28;20030;-76
2023/12/28 06:11:14;;;;;;;2.85;1.67;;;;;;;;;;2077269;28;20058;-77
2023/12/28 06:12:33;;;;;;;4.60;1.30;;;;;;;;;;2085502;28;20030;-75
2023/12/28 06:13:52;;;;;;;6.25;0.95;;;;;;;;;;2084149;28;20018;-75
2023/12/28 06:15:11;;;;;;;2.72;1.23;;;;;;;;;;2073738;28;20026;-75
2023/12/28 06:16:32;;;;;;;7.78;1.38;;;;;;;;;;2077779;28;20025;-75
2023/12/28 06:17:51;;;;;;;4.03;1.40;;;;;;;;;;2076938;28;20453;-76
2023/12/28 06:19:12;;;;;;;6.45;1.50;;;;;;;;;;2080212;28;20474;-75
2023/12/28 06:20:31;;;;;;;6.88;1.25;;;;;;;;;;2074969;28;20042;-76
2023/12/28 06:21:50;;;;;;;8.95;2.08;;;;;;;;;;2077378;28;20566;-77
2023/12/28 06:23:09;;;;;;;3.70;1.15;;;;;;;;;;2072660;28;20034;-75
2023/12/28 06:24:28;;;;;;;4.53;1.30;;;;;;;;;;2073826;28;20022;-76
2023/12/28 06:25:47;;;;;;;7.22;1.70;;;;;;;;;;2079204;28;20017;-76
2023/12/28 06:27:06;;;;;;;5.10;1.58;;;;;;;;;;2080627;28;20026;-75
2023/12/28 06:28:25;;;;;;;7.20;1.30;;;;;;;;;;2075556;28;20104;-75
2023/12/28 06:29:44;;;;;;;3.72;1.40;;;;;;;;;;2077789;28;20959;-75
2023/12/28 06:31:04;;;;;;;8.88;1.92;;;;;;;;;;2073349;28;20033;-76
2023/12/28 06:32:24;;;;;;;5.90;1.30;;;;;;;;;;2078521;28;20506;-75
2023/12/28 06:33:44;;;;;;;7.78;1.67;;;;;;;;;;2080216;28;20454;-76
2023/12/28 06:35:03;;;;;;;6.28;1.25;;;;;;;;;;2080100;28;20030;-76
2023/12/28 06:36:22;;;;;;;8.57;1.85;;;;;;;;;;2080222;28;20030;-76
2023/12/28 06:37:42;;;;;;;5.38;2.08;;;;;;;;;;2079164;28;20029;-78
2023/12/28 06:39:01;;;;;;;6.13;1.33;;;;;;;;;;2072271;28;20038;-76
2023/12/28 06:40:19;;;;;;;6.97;1.38;;;;;;;;;;2078004;28;20037;-76
2023/12/28 06:41:38;;;;;;;4.18;1.10;;;;;;;;;;2079961;28;20026;-76
2023/12/28 06:42:58;;;;;;;4.72;1.35;;;;;;;;;;2080872;28;20022;-75
2023/12/28 06:44:17;;;;;;;3.40;1.48;;;;;;;;;;2068003;28;20023;-75
2023/12/28 06:45:35;;;;;;;4.97;1.63;;;;;;;;;;2069274;28;20487;-77
2023/12/28 06:46:55;;;;;;;7.07;1.35;;;;;;;;;;2071830;28;20033;-75
2023/12/28 06:48:14;;;;;;;8.50;1.63;;;;;;;;;;2075850;28;20021;-76
2023/12/28 06:49:33;;;;;;;7.43;1.20;;;;;;;;;;2080476;28;20352;-76
2023/12/28 06:50:52;;;;;;;4.80;1.38;;;;;;;;;;2079582;28;20029;-78
2023/12/28 06:52:11;;;;;;;6.53;1.35;;;;;;;;;;2073867;28;20507;-76
2023/12/28 06:53:30;;;;;;;5.55;2.53;;;;;;;;;;2077512;28;20029;-75
2023/12/28 06:54:50;;;;;;;3.92;1.65;;;;;;;;;;2079594;28;20444;-76
2023/12/28 06:56:09;;;;;;;7.30;1.25;;;;;;;;;;2080612;28;20473;-76
2023/12/28 06:57:28;;;;;;;3.70;1.02;;;;;;;;;;2072185;28;20057;-75
2023/12/28 06:58:47;;;;;;;4.13;1.58;;;;;;;;;;2077927;28;20033;-76
2023/12/28 07:00:06;;;;;;;5.28;1.17;;;;;;;;;;2074750;28;20732;-76
2023/12/28 07:01:25;;;;;;;6.00;2.60;;;;;;;;;;2072552;28;20430;-76
2023/12/28 07:02:44;;;;;;;4.07;1.60;;;;;;;;;;2077465;28;20076;-76
2023/12/28 07:04:03;;;;;;;5.72;1.20;;;;;;;;;;2074228;28;20487;-75
2023/12/28 07:05:22;;;;;;;3.40;1.50;;;;;;;;;;2068922;28;20038;-74
2023/12/28 07:06:41;;;;;;;5.38;1.08;;;;;;;;;;2077969;28;20025;-76
2023/12/28 07:08:00;;;;;;;6.45;1.30;;;;;;;;;;2076442;28;20118;-78
2023/12/28 07:09:19;;;;;;;5.97;1.42;;;;;;;;;;2071359;28;20022;-75
2023/12/28 07:10:38;;;;;;;11.18;1.05;;;;;;;;;;2078004;28;20033;-75
2023/12/28 07:11:56;;;;;;;4.88;1.20;;;;;;;;;;2072528;28;20049;-75
2023/12/28 07:13:15;;;;;;;7.45;1.73;;;;;;;;;;2069631;28;20625;-75
2023/12/28 07:14:36;;;;;;;6.32;1.50;;;;;;;;;;2077830;28;20514;-77
2023/12/28 07:15:54;;;;;;;5.40;1.15;;;;;;;;;;2081576;28;20029;-76
2023/12/28 07:17:17;;;;;;;3.50;1.10;;;;;;;;;;2074602;28;20029;-75
2023/12/28 07:18:36;;;;;;;5.05;2.00;;;;;;;;;;2075543;28;20100;-76
2023/12/28 07:19:55;;;;;;;4.35;1.45;;;;;;;;;;2071124;28;20034;-76
2023/12/28 07:21:14;;;;;;;6.25;1.45;;;;;;;;;;2070682;28;20046;-74
2023/12/28 07:22:33;;;;;;;6.75;1.40;;;;;;;;;;2074406;28;20534;-76
2023/12/28 07:23:52;;;;;;;4.95;1.75;;;;;;;;;;2078944;28;20511;-76
2023/12/28 07:25:11;;;;;;;4.13;1.70;;;;;;;;;;2079939;28;20021;-75
2023/12/28 07:26:30;;;;;;;5.30;1.08;;;;;;;;;;2073225;28;20117;-76
2023/12/28 07:27:49;;;;;;;6.32;1.25;;;;;;;;;;2069410;28;20539;-76
2023/12/28 07:29:07;;;;;;;8.90;1.50;;;;;;;;;;2070236;28;20046;-75
2023/12/28 07:30:26;;;;;;;2.28;1.08;;;;;;;;;;2074477;28;20108;-75
2023/12/28 07:31:45;;;;;;;2.25;1.00;;;;;;;;;;2077329;28;20030;-75
2023/12/28 07:33:05;;;;;;;5.32;1.20;;;;;;;;;;2079209;28;20037;-76
2023/12/28 07:34:24;;;;;;;6.38;1.30;;;;;;;;;;2079725;28;20022;-77
2023/12/28 07:35:43;;;;;;;5.40;1.35;;;;;;;;;;2078704;28;20049;-76
2023/12/28 07:37:01;;;;;;;5.70;1.08;;;;;;;;;;2079324;28;20619;-75
2023/12/28 07:38:20;;;;;;;3.67;1.20;;;;;;;;;;2073777;28;20038;-77
2023/12/28 07:39:39;;;;;;;6.60;1.10;;;;;;;;;;2078165;28;20017;-76
2023/12/28 07:40:58;;;;;;;6.93;1.15;;;;;;;;;;2079933;28;20058;-76
2023/12/28 07:42:18;;;;;;;3.40;1.38;;;;;;;;;;2073631;28;20398;-76
2023/12/28 07:43:37;;;;;;;5.78;1.15;;;;;;;;;;2076033;28;20041;-75
2023/12/28 07:44:56;;;;;;;4.10;0.80;;;;;;;;;;2074207;28;20026;-76
2023/12/28 07:46:15;;;;;;;3.17;1.30;;;;;;;;;;2070272;28;20092;-76
2023/12/28 07:47:34;;;;;;;4.78;1.05;;;;;;;;;;2075925;28;20034;-75
2023/12/28 07:48:54;;;;;;;4.05;1.02;;;;;;;;;;2079973;28;20353;-75
2023/12/28 07:50:13;;;;;;;6.82;1.35;;;;;;;;;;2080152;28;20025;-76
2023/12/28 07:51:31;;;;;;;6.35;1.15;;;;;;;;;;2078745;28;20033;-76
2023/12/28 07:52:50;;;;;;;3.92;1.02;;;;;;;;;;2077003;28;20030;-76
2023/12/28 07:54:10;;;;;;;2.75;1.17;;;;;;;;;;2068343;28;20033;-76
2023/12/28 07:55:28;;;;;;;5.93;1.10;;;;;;;;;;2077820;28;20033;-76